E22ZMG-1 Weather Reports


time (UTC)temp
F
wind
direction
speed
knots
gust
knots
rain 1hr
in
rain 24hr
in
rain mn
in
humidity
%
barometer
mb
20240614111151 92 0 0.0 0.0 0.00 0.00 0.00 58 970.0
20240614110122 93 0 0.0 0.0 0.00 0.00 0.00 56 970.0
20240614105054 93 0 0.0 0.0 0.00 0.00 0.00 56 969.0
20240614104025 93 0 0.0 0.0 0.00 0.00 0.00 57 969.0
20240614102956 94 0 0.0 0.0 0.00 0.00 0.00 55 969.0
20240614101927 94 0 0.0 0.0 0.00 0.00 0.00 55 969.0
20240614100858 95 0 0.0 0.0 0.00 0.00 0.00 53 969.0
20240614095832 95 0 0.0 0.0 0.00 0.00 0.00 53 969.0
20240614094807 96 0 0.0 0.0 0.00 0.00 0.00 54 969.0
20240614093742 96 0 0.0 0.0 0.00 0.00 0.00 53 969.0
20240614092717 96 0 0.0 0.0 0.00 0.00 0.00 53 969.0
20240614091651 97 0 0.0 0.0 0.00 0.00 0.00 52 969.0
20240614090625 96 0 0.0 0.0 0.00 0.00 0.00 53 969.0
20240614085559 96 0 0.0 0.0 0.00 0.00 0.00 54 969.0
20240614084535 95 0 0.0 0.0 0.00 0.00 0.00 56 969.0
20240614083508 92 0 0.0 0.0 0.00 0.00 0.00 61 969.0
20240614082442 92 0 0.0 0.0 0.00 0.00 0.00 61 969.0
20240614081418 92 0 0.0 0.0 0.00 0.00 0.00 61 969.0
20240614080352 92 0 0.0 0.0 0.00 0.00 0.00 61 970.0
20240614075327 92 0 0.0 0.0 0.00 0.00 0.00 60 970.0
20240614074303 94 0 0.0 0.0 0.00 0.00 0.00 56 970.0
20240614073237 95 0 0.0 0.0 0.00 0.00 0.00 54 970.0
20240614072212 96 0 0.0 0.0 0.00 0.00 0.00 54 970.0
20240614071148 95 0 0.0 0.0 0.00 0.00 0.00 54 970.0
20240614070122 96 0 0.0 0.0 0.00 0.00 0.00 53 971.0
20240614065056 96 0 0.0 0.0 0.00 0.00 0.00 53 971.0
20240614064031 96 0 0.0 0.0 0.00 0.00 0.00 54 971.0
20240614063006 94 0 0.0 0.0 0.00 0.00 0.00 56 971.0
20240614055416 93 0 0.0 0.0 0.00 0.00 0.00 59 972.0
20240614054350 93 0 0.0 0.0 0.00 0.00 0.00 60 972.0
20240614053319 92 0 0.0 0.0 0.00 0.00 0.00 61 972.0
20240614052253 92 0 0.0 0.0 0.00 0.00 0.00 63 972.0
20240614051227 91 0 0.0 0.0 0.00 0.00 0.00 65 972.0
20240614050204 90 0 0.0 0.0 0.00 0.00 0.00 66 972.0
20240614045135 90 0 0.0 0.0 0.00 0.00 0.00 66 972.0
20240614043301 89 0 0.0 0.0 0.00 0.00 0.00 68 972.0
20240614042236 89 0 0.0 0.0 0.00 0.00 0.00 70 972.0
20240614041210 88 0 0.0 0.0 0.00 0.00 0.00 71 972.0
20240614035818 87 0 0.0 0.0 0.00 0.00 0.00 73 972.0
20240614034753 87 0 0.0 0.0 0.00 0.00 0.00 74 973.0
20240614033727 87 0 0.0 0.0 0.00 0.00 0.00 76 973.0
20240614032702 86 0 0.0 0.0 0.00 0.00 0.00 77 973.0
20240614031635 86 0 0.0 0.0 0.00 0.00 0.00 79 973.0
20240614030605 86 0 0.0 0.0 0.00 0.00 0.00 81 973.0
20240614025535 85 0 0.0 0.0 0.00 0.00 0.00 81 973.0
20240614024508 86 0 0.0 0.0 0.00 0.00 0.00 80 973.0
20240614023441 85 0 0.0 0.0 0.00 0.00 0.00 80 973.0
20240614022414 85 0 0.0 0.0 0.00 0.00 0.00 78 973.0
20240614020954 86 0 0.0 0.0 0.00 0.00 0.00 75 973.0
20240614015929 87 0 0.0 0.0 0.00 0.00 0.00 70 973.0
20240614014904 87 0 0.0 0.0 0.00 0.00 0.00 67 973.0
20240614013839 87 0 0.0 0.0 0.00 0.00 0.00 68 973.0
20240614012814 87 0 0.0 0.0 0.00 0.00 0.00 68 972.0
20240614011749 87 0 0.0 0.0 0.00 0.00 0.00 68 972.0
20240614010725 87 0 0.0 0.0 0.00 0.00 0.00 68 972.0
20240614005700 87 0 0.0 0.0 0.00 0.00 0.00 69 972.0
20240614004635 87 0 0.0 0.0 0.00 0.00 0.00 70 972.0
20240614003610 86 0 0.0 0.0 0.00 0.00 0.00 74 972.0
20240614002545 86 0 0.0 0.0 0.00 0.00 0.00 77 972.0
20240614001519 86 0 0.0 0.0 0.00 0.00 0.00 77 971.0
20240613235426 86 0 0.0 0.0 0.00 0.00 0.00 77 971.0
20240613234359 86 0 0.0 0.0 0.00 0.00 0.00 78 971.0
20240613233333 86 0 0.0 0.0 0.00 0.00 0.00 78 971.0
20240613232306 85 0 0.0 0.0 0.00 0.00 0.00 79 971.0
20240613231238 85 0 0.0 0.0 0.00 0.00 0.00 79 971.0
20240613230213 85 0 0.0 0.0 0.00 0.00 0.00 80 971.0
20240613225149 85 0 0.0 0.0 0.00 0.00 0.00 80 971.0
20240613224122 85 0 0.0 0.0 0.00 0.00 0.00 79 971.0
20240613223056 85 0 0.0 0.0 0.00 0.00 0.00 78 971.0
20240613222030 85 0 0.0 0.0 0.00 0.00 0.00 78 971.0
20240613221004 85 0 0.0 0.0 0.00 0.00 0.00 78 971.0
20240613215939 85 0 0.0 0.0 0.00 0.00 0.00 78 971.0
20240613214915 85 0 0.0 0.0 0.00 0.00 0.00 77 971.0
20240613213851 85 0 0.0 0.0 0.00 0.00 0.00 77 971.0
20240613212824 85 0 0.0 0.0 0.00 0.00 0.00 77 971.0
20240613211800 85 0 0.0 0.0 0.00 0.00 0.00 76 971.0
20240613210735 86 0 0.0 0.0 0.00 0.00 0.00 74 971.0
20240613205711 86 0 0.0 0.0 0.00 0.00 0.00 74 971.0
20240613204647 86 0 0.0 0.0 0.00 0.00 0.00 73 971.0
20240613203623 86 0 0.0 0.0 0.00 0.00 0.00 73 971.0
20240613202559 86 0 0.0 0.0 0.00 0.00 0.00 72 971.0
20240613201534 86 0 0.0 0.0 0.00 0.00 0.00 72 971.0
20240613200509 86 0 0.0 0.0 0.00 0.00 0.00 71 971.0
20240613195444 86 0 0.0 0.0 0.00 0.00 0.00 71 971.0
20240613194421 86 0 0.0 0.0 0.00 0.00 0.00 70 971.0
20240613193354 86 0 0.0 0.0 0.00 0.00 0.00 71 971.0
20240613192328 86 0 0.0 0.0 0.00 0.00 0.00 70 971.0
20240613191304 86 0 0.0 0.0 0.00 0.00 0.00 70 971.0
20240613190239 87 0 0.0 0.0 0.00 0.00 0.00 70 971.0
20240613185211 87 0 0.0 0.0 0.00 0.00 0.00 69 971.0
20240613183214 87 0 0.0 0.0 0.00 0.00 0.00 68 972.0
20240613182148 87 0 0.0 0.0 0.00 0.00 0.00 67 971.0
20240613181123 87 0 0.0 0.0 0.00 0.00 0.00 67 971.0
20240613180057 88 0 0.0 0.0 0.00 0.00 0.00 67 972.0
20240613175031 88 0 0.0 0.0 0.00 0.00 0.00 67 972.0
20240613174006 88 0 0.0 0.0 0.00 0.00 0.00 67 972.0
20240613172941 88 0 0.0 0.0 0.00 0.00 0.00 66 972.0
20240613171914 88 0 0.0 0.0 0.00 0.00 0.00 66 972.0
20240613170849 88 0 0.0 0.0 0.00 0.00 0.00 66 972.0
20240613165824 88 0 0.0 0.0 0.00 0.00 0.00 66 973.0
20240613164759 88 0 0.0 0.0 0.00 0.00 0.00 66 973.0
20240613163734 88 0 0.0 0.0 0.00 0.00 0.00 65 973.0
20240613162709 88 0 0.0 0.0 0.00 0.00 0.00 64 973.0
20240613161644 88 0 0.0 0.0 0.00 0.00 0.00 63 973.0
20240613160618 89 0 0.0 0.0 0.00 0.00 0.00 62 973.0
20240613155552 88 0 0.0 0.0 0.00 0.00 0.00 62 973.0
20240613154527 89 0 0.0 0.0 0.00 0.00 0.00 63 973.0
20240613153502 89 0 0.0 0.0 0.00 0.00 0.00 61 973.0
20240613152437 89 0 0.0 0.0 0.00 0.00 0.00 61 973.0
20240613151412 89 0 0.0 0.0 0.00 0.00 0.00 61 973.0
20240613150346 89 0 0.0 0.0 0.00 0.00 0.00 62 973.0
20240613145319 89 0 0.0 0.0 0.00 0.00 0.00 62 972.0
20240613144255 89 0 0.0 0.0 0.00 0.00 0.00 61 972.0
20240613143228 89 0 0.0 0.0 0.00 0.00 0.00 61 972.0
20240613142203 90 0 0.0 0.0 0.00 0.00 0.00 60 972.0
20240613141137 89 0 0.0 0.0 0.00 0.00 0.00 60 972.0
20240613140111 90 0 0.0 0.0 0.00 0.00 0.00 60 972.0
20240613135047 90 0 0.0 0.0 0.00 0.00 0.00 60 972.0
20240613134020 90 0 0.0 0.0 0.00 0.00 0.00 59 972.0
20240613132955 90 0 0.0 0.0 0.00 0.00 0.00 59 972.0
20240613131930 91 0 0.0 0.0 0.00 0.00 0.00 59 972.0
20240613130903 91 0 0.0 0.0 0.00 0.00 0.00 58 972.0
20240613125838 91 0 0.0 0.0 0.00 0.00 0.00 58 972.0
20240613124813 91 0 0.0 0.0 0.00 0.00 0.00 58 972.0
20240613123746 91 0 0.0 0.0 0.00 0.00 0.00 58 972.0
20240613122722 92 0 0.0 0.0 0.00 0.00 0.00 57 972.0
20240613121657 91 0 0.0 0.0 0.00 0.00 0.00 57 971.0
20240613120633 92 0 0.0 0.0 0.00 0.00 0.00 57 971.0
20240613115606 92 0 0.0 0.0 0.00 0.00 0.00 55 971.0
20240613114539 92 0 0.0 0.0 0.00 0.00 0.00 55 971.0
20240613113512 93 0 0.0 0.0 0.00 0.00 0.00 54 971.0
20240613112446 93 0 0.0 0.0 0.00 0.00 0.00 55 971.0